sensor_id;sensor_type;location;lat;lon;timestamp;P1;durP1;ratioP1;P2;durP2;ratioP2
840;SDS011;406;48.566;13.450;2024-02-04T00:02:11;6.43;;;5.83;;
840;SDS011;406;48.566;13.450;2024-02-04T00:04:40;5.60;;;5.10;;
840;SDS011;406;48.566;13.450;2024-02-04T00:07:07;6.30;;;5.70;;
840;SDS011;406;48.566;13.450;2024-02-04T00:09:34;6.10;;;5.57;;
840;SDS011;406;48.566;13.450;2024-02-04T00:12:02;6.03;;;5.43;;
840;SDS011;406;48.566;13.450;2024-02-04T00:14:30;6.60;;;5.50;;
840;SDS011;406;48.566;13.450;2024-02-04T00:16:57;6.00;;;5.50;;
840;SDS011;406;48.566;13.450;2024-02-04T00:19:23;7.63;;;5.30;;
840;SDS011;406;48.566;13.450;2024-02-04T00:21:50;5.87;;;5.20;;
840;SDS011;406;48.566;13.450;2024-02-04T00:24:17;6.37;;;5.80;;
840;SDS011;406;48.566;13.450;2024-02-04T00:26:45;5.90;;;5.30;;
840;SDS011;406;48.566;13.450;2024-02-04T00:29:11;6.33;;;5.73;;
840;SDS011;406;48.566;13.450;2024-02-04T00:31:38;5.93;;;5.17;;
840;SDS011;406;48.566;13.450;2024-02-04T00:34:05;6.47;;;5.87;;
840;SDS011;406;48.566;13.450;2024-02-04T00:36:31;6.40;;;5.37;;
840;SDS011;406;48.566;13.450;2024-02-04T00:38:58;7.10;;;6.30;;
840;SDS011;406;48.566;13.450;2024-02-04T00:41:25;7.20;;;5.57;;
840;SDS011;406;48.566;13.450;2024-02-04T00:43:51;6.03;;;5.33;;
840;SDS011;406;48.566;13.450;2024-02-04T00:46:18;5.60;;;5.00;;
840;SDS011;406;48.566;13.450;2024-02-04T00:48:45;7.10;;;5.80;;
840;SDS011;406;48.566;13.450;2024-02-04T00:51:12;7.23;;;5.73;;
840;SDS011;406;48.566;13.450;2024-02-04T00:53:39;6.33;;;5.73;;
840;SDS011;406;48.566;13.450;2024-02-04T00:56:06;9.70;;;5.80;;
840;SDS011;406;48.566;13.450;2024-02-04T00:58:32;6.17;;;5.20;;
840;SDS011;406;48.566;13.450;2024-02-04T01:00:59;5.93;;;5.33;;
840;SDS011;406;48.566;13.450;2024-02-04T01:03:26;5.97;;;5.40;;
840;SDS011;406;48.566;13.450;2024-02-04T01:05:52;6.10;;;5.57;;
840;SDS011;406;48.566;13.450;2024-02-04T01:08:19;5.43;;;4.90;;
840;SDS011;406;48.566;13.450;2024-02-04T01:10:45;5.77;;;5.27;;
840;SDS011;406;48.566;13.450;2024-02-04T01:13:13;5.13;;;4.63;;
840;SDS011;406;48.566;13.450;2024-02-04T01:15:40;6.27;;;5.67;;
840;SDS011;406;48.566;13.450;2024-02-04T01:18:06;5.70;;;4.77;;
840;SDS011;406;48.566;13.450;2024-02-04T01:20:33;4.97;;;4.40;;
840;SDS011;406;48.566;13.450;2024-02-04T01:23:00;5.10;;;4.60;;
840;SDS011;406;48.566;13.450;2024-02-04T01:25:26;5.47;;;4.97;;
840;SDS011;406;48.566;13.450;2024-02-04T01:27:53;5.63;;;4.80;;
840;SDS011;406;48.566;13.450;2024-02-04T01:30:20;5.00;;;4.40;;
840;SDS011;406;48.566;13.450;2024-02-04T01:32:47;6.13;;;5.07;;
840;SDS011;406;48.566;13.450;2024-02-04T01:35:14;4.87;;;4.47;;
840;SDS011;406;48.566;13.450;2024-02-04T01:37:41;5.03;;;4.53;;
840;SDS011;406;48.566;13.450;2024-02-04T01:40:09;4.60;;;4.20;;
840;SDS011;406;48.566;13.450;2024-02-04T01:42:36;6.40;;;5.57;;
840;SDS011;406;48.566;13.450;2024-02-04T01:45:04;5.43;;;4.93;;
840;SDS011;406;48.566;13.450;2024-02-04T01:47:30;6.23;;;5.40;;
840;SDS011;406;48.566;13.450;2024-02-04T01:49:57;5.93;;;5.33;;
840;SDS011;406;48.566;13.450;2024-02-04T01:52:24;5.23;;;4.73;;
840;SDS011;406;48.566;13.450;2024-02-04T01:54:50;5.90;;;5.30;;
840;SDS011;406;48.566;13.450;2024-02-04T01:57:18;5.80;;;5.20;;
840;SDS011;406;48.566;13.450;2024-02-04T01:59:44;5.83;;;5.33;;
840;SDS011;406;48.566;13.450;2024-02-04T02:02:11;6.70;;;6.00;;
840;SDS011;406;48.566;13.450;2024-02-04T02:04:38;6.27;;;5.67;;
840;SDS011;406;48.566;13.450;2024-02-04T02:07:05;6.00;;;5.50;;
840;SDS011;406;48.566;13.450;2024-02-04T02:09:34;5.30;;;4.80;;
840;SDS011;406;48.566;13.450;2024-02-04T02:12:07;6.20;;;5.43;;
840;SDS011;406;48.566;13.450;2024-02-04T02:14:37;7.00;;;6.30;;
840;SDS011;406;48.566;13.450;2024-02-04T02:17:07;6.70;;;5.97;;
840;SDS011;406;48.566;13.450;2024-02-04T02:20:03;6.57;;;6.07;;
840;SDS011;406;48.566;13.450;2024-02-04T02:22:49;5.93;;;5.33;;
840;SDS011;406;48.566;13.450;2024-02-04T02:25:19;6.20;;;5.60;;
840;SDS011;406;48.566;13.450;2024-02-04T02:27:47;6.53;;;5.93;;
840;SDS011;406;48.566;13.450;2024-02-04T02:30:15;7.73;;;6.93;;
840;SDS011;406;48.566;13.450;2024-02-04T02:32:46;7.73;;;7.00;;
840;SDS011;406;48.566;13.450;2024-02-04T02:35:14;7.27;;;6.57;;
840;SDS011;406;48.566;13.450;2024-02-04T02:37:43;7.83;;;6.50;;
840;SDS011;406;48.566;13.450;2024-02-04T02:40:45;7.10;;;6.50;;
840;SDS011;406;48.566;13.450;2024-02-04T02:43:14;8.43;;;6.70;;
840;SDS011;406;48.566;13.450;2024-02-04T02:45:42;6.60;;;5.90;;
840;SDS011;406;48.566;13.450;2024-02-04T02:48:09;7.00;;;6.27;;
840;SDS011;406;48.566;13.450;2024-02-04T02:50:36;7.43;;;6.40;;
840;SDS011;406;48.566;13.450;2024-02-04T02:53:03;6.20;;;5.60;;
840;SDS011;406;48.566;13.450;2024-02-04T02:55:30;7.00;;;6.30;;
840;SDS011;406;48.566;13.450;2024-02-04T02:57:57;6.30;;;5.70;;
840;SDS011;406;48.566;13.450;2024-02-04T03:00:24;7.80;;;6.23;;
840;SDS011;406;48.566;13.450;2024-02-04T03:02:50;8.07;;;7.03;;
840;SDS011;406;48.566;13.450;2024-02-04T03:05:17;6.90;;;5.80;;
840;SDS011;406;48.566;13.450;2024-02-04T03:07:44;7.20;;;5.50;;
840;SDS011;406;48.566;13.450;2024-02-04T03:10:10;5.83;;;5.33;;
840;SDS011;406;48.566;13.450;2024-02-04T03:12:37;5.90;;;5.30;;
840;SDS011;406;48.566;13.450;2024-02-04T03:15:04;6.20;;;5.60;;
840;SDS011;406;48.566;13.450;2024-02-04T03:17:31;6.07;;;5.30;;
840;SDS011;406;48.566;13.450;2024-02-04T03:19:57;5.67;;;4.80;;
840;SDS011;406;48.566;13.450;2024-02-04T03:22:24;6.13;;;5.10;;
840;SDS011;406;48.566;13.450;2024-02-04T03:24:51;5.03;;;4.40;;
840;SDS011;406;48.566;13.450;2024-02-04T03:27:18;6.27;;;5.67;;
840;SDS011;406;48.566;13.450;2024-02-04T03:29:46;6.20;;;5.33;;
840;SDS011;406;48.566;13.450;2024-02-04T03:32:13;7.40;;;5.13;;
840;SDS011;406;48.566;13.450;2024-02-04T03:34:42;6.40;;;4.97;;
840;SDS011;406;48.566;13.450;2024-02-04T03:37:10;5.87;;;5.20;;
840;SDS011;406;48.566;13.450;2024-02-04T03:39:37;5.00;;;4.13;;
840;SDS011;406;48.566;13.450;2024-02-04T03:42:03;6.30;;;4.87;;
840;SDS011;406;48.566;13.450;2024-02-04T03:44:30;5.10;;;4.60;;
840;SDS011;406;48.566;13.450;2024-02-04T03:46:57;6.03;;;5.33;;
840;SDS011;406;48.566;13.450;2024-02-04T03:49:23;5.53;;;4.97;;
840;SDS011;406;48.566;13.450;2024-02-04T03:51:50;5.97;;;5.37;;
840;SDS011;406;48.566;13.450;2024-02-04T03:54:17;6.13;;;5.53;;
840;SDS011;406;48.566;13.450;2024-02-04T03:56:45;5.27;;;4.77;;
840;SDS011;406;48.566;13.450;2024-02-04T03:59:12;5.57;;;5.07;;
840;SDS011;406;48.566;13.450;2024-02-04T04:01:38;6.23;;;5.60;;
840;SDS011;406;48.566;13.450;2024-02-04T04:04:05;6.73;;;6.03;;
840;SDS011;406;48.566;13.450;2024-02-04T04:06:32;6.43;;;5.57;;
840;SDS011;406;48.566;13.450;2024-02-04T04:08:59;7.10;;;5.80;;
840;SDS011;406;48.566;13.450;2024-02-04T04:11:25;6.47;;;5.80;;
840;SDS011;406;48.566;13.450;2024-02-04T04:13:52;6.43;;;4.93;;
840;SDS011;406;48.566;13.450;2024-02-04T04:16:21;6.77;;;6.10;;
840;SDS011;406;48.566;13.450;2024-02-04T04:18:48;5.80;;;5.20;;
840;SDS011;406;48.566;13.450;2024-02-04T04:21:16;6.57;;;5.97;;
840;SDS011;406;48.566;13.450;2024-02-04T04:23:42;5.87;;;5.27;;
840;SDS011;406;48.566;13.450;2024-02-04T04:26:09;5.67;;;5.07;;
840;SDS011;406;48.566;13.450;2024-02-04T04:28:35;5.97;;;5.10;;
840;SDS011;406;48.566;13.450;2024-02-04T04:31:02;5.37;;;4.87;;
840;SDS011;406;48.566;13.450;2024-02-04T04:33:29;6.30;;;5.27;;
840;SDS011;406;48.566;13.450;2024-02-04T04:35:56;6.10;;;5.50;;
840;SDS011;406;48.566;13.450;2024-02-04T04:38:23;6.33;;;5.63;;
840;SDS011;406;48.566;13.450;2024-02-04T04:40:49;5.77;;;5.03;;
840;SDS011;406;48.566;13.450;2024-02-04T04:43:16;5.57;;;5.07;;
840;SDS011;406;48.566;13.450;2024-02-04T04:45:42;4.53;;;4.13;;
840;SDS011;406;48.566;13.450;2024-02-04T04:48:09;5.77;;;4.90;;
840;SDS011;406;48.566;13.450;2024-02-04T04:50:36;4.47;;;4.07;;
840;SDS011;406;48.566;13.450;2024-02-04T04:53:02;4.90;;;4.40;;
840;SDS011;406;48.566;13.450;2024-02-04T04:55:29;4.60;;;4.10;;
840;SDS011;406;48.566;13.450;2024-02-04T04:57:55;5.40;;;4.90;;
840;SDS011;406;48.566;13.450;2024-02-04T05:00:22;6.53;;;4.80;;
840;SDS011;406;48.566;13.450;2024-02-04T05:02:49;5.77;;;4.77;;
840;SDS011;406;48.566;13.450;2024-02-04T05:05:15;6.40;;;4.87;;
840;SDS011;406;48.566;13.450;2024-02-04T05:07:42;7.10;;;4.90;;
840;SDS011;406;48.566;13.450;2024-02-04T05:10:09;5.00;;;4.50;;
840;SDS011;406;48.566;13.450;2024-02-04T05:12:35;5.23;;;4.40;;
840;SDS011;406;48.566;13.450;2024-02-04T05:15:02;5.97;;;5.37;;
840;SDS011;406;48.566;13.450;2024-02-04T05:17:29;5.70;;;5.10;;
840;SDS011;406;48.566;13.450;2024-02-04T05:19:55;4.87;;;4.37;;
840;SDS011;406;48.566;13.450;2024-02-04T05:22:22;4.57;;;4.13;;
840;SDS011;406;48.566;13.450;2024-02-04T05:24:49;4.87;;;4.33;;
840;SDS011;406;48.566;13.450;2024-02-04T05:27:15;5.70;;;5.07;;
840;SDS011;406;48.566;13.450;2024-02-04T05:29:42;4.50;;;4.10;;
840;SDS011;406;48.566;13.450;2024-02-04T05:32:08;4.77;;;4.33;;
840;SDS011;406;48.566;13.450;2024-02-04T05:34:36;4.47;;;4.03;;
840;SDS011;406;48.566;13.450;2024-02-04T05:37:03;5.20;;;4.33;;
840;SDS011;406;48.566;13.450;2024-02-04T05:39:30;6.77;;;4.10;;
840;SDS011;406;48.566;13.450;2024-02-04T05:41:57;4.00;;;3.70;;
840;SDS011;406;48.566;13.450;2024-02-04T05:44:23;5.60;;;4.50;;
840;SDS011;406;48.566;13.450;2024-02-04T05:46:50;4.53;;;4.03;;
840;SDS011;406;48.566;13.450;2024-02-04T05:49:16;5.40;;;4.90;;
840;SDS011;406;48.566;13.450;2024-02-04T05:51:43;3.73;;;3.30;;
840;SDS011;406;48.566;13.450;2024-02-04T05:54:10;4.97;;;4.10;;
840;SDS011;406;48.566;13.450;2024-02-04T05:56:36;4.30;;;3.90;;
840;SDS011;406;48.566;13.450;2024-02-04T05:59:03;4.27;;;3.87;;
840;SDS011;406;48.566;13.450;2024-02-04T06:01:29;4.03;;;3.63;;
840;SDS011;406;48.566;13.450;2024-02-04T06:03:56;5.70;;;4.93;;
840;SDS011;406;48.566;13.450;2024-02-04T06:06:23;4.43;;;4.03;;
840;SDS011;406;48.566;13.450;2024-02-04T06:08:49;5.77;;;4.37;;
840;SDS011;406;48.566;13.450;2024-02-04T06:11:16;4.80;;;4.30;;
840;SDS011;406;48.566;13.450;2024-02-04T06:13:43;4.37;;;3.97;;
840;SDS011;406;48.566;13.450;2024-02-04T06:16:10;4.53;;;4.13;;
840;SDS011;406;48.566;13.450;2024-02-04T06:18:40;4.73;;;4.33;;
840;SDS011;406;48.566;13.450;2024-02-04T06:21:07;5.07;;;4.57;;
840;SDS011;406;48.566;13.450;2024-02-04T06:23:34;4.63;;;4.20;;
840;SDS011;406;48.566;13.450;2024-02-04T06:26:01;5.07;;;4.53;;
840;SDS011;406;48.566;13.450;2024-02-04T06:28:28;4.70;;;4.30;;
840;SDS011;406;48.566;13.450;2024-02-04T06:30:54;5.10;;;4.50;;
840;SDS011;406;48.566;13.450;2024-02-04T06:33:21;5.03;;;4.53;;
840;SDS011;406;48.566;13.450;2024-02-04T06:35:50;5.67;;;4.70;;
840;SDS011;406;48.566;13.450;2024-02-04T06:38:16;4.20;;;3.80;;
840;SDS011;406;48.566;13.450;2024-02-04T06:40:43;5.83;;;5.23;;
840;SDS011;406;48.566;13.450;2024-02-04T06:43:10;8.47;;;4.50;;
840;SDS011;406;48.566;13.450;2024-02-04T06:45:36;4.73;;;4.23;;
840;SDS011;406;48.566;13.450;2024-02-04T06:48:03;5.37;;;4.80;;
840;SDS011;406;48.566;13.450;2024-02-04T06:50:30;5.73;;;3.70;;
840;SDS011;406;48.566;13.450;2024-02-04T06:52:56;5.33;;;4.30;;
840;SDS011;406;48.566;13.450;2024-02-04T06:55:23;8.03;;;4.67;;
840;SDS011;406;48.566;13.450;2024-02-04T06:57:50;5.17;;;4.10;;
840;SDS011;406;48.566;13.450;2024-02-04T07:00:16;5.77;;;3.80;;
840;SDS011;406;48.566;13.450;2024-02-04T07:02:43;4.40;;;4.00;;
840;SDS011;406;48.566;13.450;2024-02-04T07:05:09;4.73;;;4.20;;
840;SDS011;406;48.566;13.450;2024-02-04T07:07:37;5.10;;;4.50;;
840;SDS011;406;48.566;13.450;2024-02-04T07:10:03;5.33;;;4.83;;
840;SDS011;406;48.566;13.450;2024-02-04T07:12:31;5.50;;;4.80;;
840;SDS011;406;48.566;13.450;2024-02-04T07:14:57;4.43;;;4.03;;
840;SDS011;406;48.566;13.450;2024-02-04T07:17:25;4.53;;;4.03;;
840;SDS011;406;48.566;13.450;2024-02-04T07:19:51;6.50;;;4.80;;
840;SDS011;406;48.566;13.450;2024-02-04T07:22:18;7.47;;;4.60;;
840;SDS011;406;48.566;13.450;2024-02-04T07:24:44;5.10;;;4.23;;
840;SDS011;406;48.566;13.450;2024-02-04T07:27:11;6.23;;;4.73;;
840;SDS011;406;48.566;13.450;2024-02-04T07:29:38;5.27;;;4.67;;
840;SDS011;406;48.566;13.450;2024-02-04T07:32:04;4.77;;;4.30;;
840;SDS011;406;48.566;13.450;2024-02-04T07:34:31;5.03;;;4.53;;
840;SDS011;406;48.566;13.450;2024-02-04T07:36:57;5.63;;;4.47;;
840;SDS011;406;48.566;13.450;2024-02-04T07:39:24;4.63;;;4.00;;
840;SDS011;406;48.566;13.450;2024-02-04T07:41:51;4.63;;;4.20;;
840;SDS011;406;48.566;13.450;2024-02-04T07:44:20;4.87;;;4.27;;
840;SDS011;406;48.566;13.450;2024-02-04T07:46:46;5.10;;;4.30;;
840;SDS011;406;48.566;13.450;2024-02-04T07:49:13;5.10;;;4.60;;
840;SDS011;406;48.566;13.450;2024-02-04T07:51:39;5.10;;;4.53;;
840;SDS011;406;48.566;13.450;2024-02-04T07:54:06;4.53;;;3.83;;
840;SDS011;406;48.566;13.450;2024-02-04T07:56:32;4.10;;;3.63;;
840;SDS011;406;48.566;13.450;2024-02-04T07:58:59;5.43;;;4.27;;
840;SDS011;406;48.566;13.450;2024-02-04T08:01:26;4.37;;;3.80;;
840;SDS011;406;48.566;13.450;2024-02-04T08:03:52;4.57;;;4.17;;
840;SDS011;406;48.566;13.450;2024-02-04T08:06:19;5.30;;;3.80;;
840;SDS011;406;48.566;13.450;2024-02-04T08:08:46;3.90;;;3.50;;
840;SDS011;406;48.566;13.450;2024-02-04T08:11:17;4.20;;;3.70;;
840;SDS011;406;48.566;13.450;2024-02-04T08:13:44;5.83;;;4.70;;
840;SDS011;406;48.566;13.450;2024-02-04T08:16:11;4.87;;;4.37;;
840;SDS011;406;48.566;13.450;2024-02-04T08:18:38;3.97;;;3.57;;
840;SDS011;406;48.566;13.450;2024-02-04T08:21:04;4.50;;;3.70;;
840;SDS011;406;48.566;13.450;2024-02-04T08:23:31;4.10;;;3.30;;
840;SDS011;406;48.566;13.450;2024-02-04T08:25:59;4.40;;;4.00;;
840;SDS011;406;48.566;13.450;2024-02-04T08:28:25;4.77;;;4.10;;
840;SDS011;406;48.566;13.450;2024-02-04T08:30:52;4.30;;;3.90;;
840;SDS011;406;48.566;13.450;2024-02-04T08:33:19;3.83;;;3.30;;
840;SDS011;406;48.566;13.450;2024-02-04T08:35:45;4.13;;;3.63;;
840;SDS011;406;48.566;13.450;2024-02-04T08:38:12;3.90;;;3.47;;
840;SDS011;406;48.566;13.450;2024-02-04T08:40:38;4.40;;;3.67;;
840;SDS011;406;48.566;13.450;2024-02-04T08:43:05;4.77;;;4.00;;
840;SDS011;406;48.566;13.450;2024-02-04T08:45:32;5.70;;;3.53;;
840;SDS011;406;48.566;13.450;2024-02-04T08:47:58;3.70;;;3.10;;
840;SDS011;406;48.566;13.450;2024-02-04T08:50:25;4.57;;;3.83;;
840;SDS011;406;48.566;13.450;2024-02-04T08:52:52;3.40;;;3.10;;
840;SDS011;406;48.566;13.450;2024-02-04T08:55:18;4.30;;;3.47;;
840;SDS011;406;48.566;13.450;2024-02-04T08:57:45;2.90;;;2.60;;
840;SDS011;406;48.566;13.450;2024-02-04T09:00:14;4.17;;;2.93;;
840;SDS011;406;48.566;13.450;2024-02-04T09:02:42;5.50;;;2.87;;
840;SDS011;406;48.566;13.450;2024-02-04T09:05:08;2.80;;;2.47;;
840;SDS011;406;48.566;13.450;2024-02-04T09:07:35;3.83;;;2.70;;
840;SDS011;406;48.566;13.450;2024-02-04T09:10:01;2.90;;;2.27;;
840;SDS011;406;48.566;13.450;2024-02-04T09:12:28;2.30;;;2.10;;
840;SDS011;406;48.566;13.450;2024-02-04T09:14:55;2.43;;;2.23;;
840;SDS011;406;48.566;13.450;2024-02-04T09:17:21;2.90;;;2.40;;
840;SDS011;406;48.566;13.450;2024-02-04T09:19:48;3.90;;;3.03;;
840;SDS011;406;48.566;13.450;2024-02-04T09:22:15;2.97;;;2.10;;
840;SDS011;406;48.566;13.450;2024-02-04T09:24:43;2.73;;;2.20;;
840;SDS011;406;48.566;13.450;2024-02-04T09:27:09;3.00;;;2.20;;
840;SDS011;406;48.566;13.450;2024-02-04T09:29:36;3.23;;;2.23;;
840;SDS011;406;48.566;13.450;2024-02-04T09:32:03;2.97;;;2.67;;
840;SDS011;406;48.566;13.450;2024-02-04T09:34:30;2.80;;;2.37;;
840;SDS011;406;48.566;13.450;2024-02-04T09:36:57;2.80;;;2.13;;
840;SDS011;406;48.566;13.450;2024-02-04T09:39:24;3.63;;;2.07;;
840;SDS011;406;48.566;13.450;2024-02-04T09:41:50;2.30;;;2.10;;
840;SDS011;406;48.566;13.450;2024-02-04T09:44:17;3.27;;;2.40;;
840;SDS011;406;48.566;13.450;2024-02-04T09:46:44;2.60;;;2.40;;
840;SDS011;406;48.566;13.450;2024-02-04T09:49:11;3.47;;;2.67;;
840;SDS011;406;48.566;13.450;2024-02-04T09:51:39;3.80;;;2.90;;
840;SDS011;406;48.566;13.450;2024-02-04T09:54:07;3.10;;;2.53;;
840;SDS011;406;48.566;13.450;2024-02-04T09:56:37;3.67;;;2.50;;
840;SDS011;406;48.566;13.450;2024-02-04T09:59:04;2.70;;;2.00;;
840;SDS011;406;48.566;13.450;2024-02-04T10:01:31;2.80;;;2.17;;
840;SDS011;406;48.566;13.450;2024-02-04T10:03:58;2.93;;;1.90;;
840;SDS011;406;48.566;13.450;2024-02-04T10:06:25;2.50;;;2.27;;
840;SDS011;406;48.566;13.450;2024-02-04T10:08:52;2.40;;;2.03;;
840;SDS011;406;48.566;13.450;2024-02-04T10:11:19;2.80;;;2.10;;
840;SDS011;406;48.566;13.450;2024-02-04T10:13:46;3.23;;;1.90;;
840;SDS011;406;48.566;13.450;2024-02-04T10:16:14;2.70;;;1.90;;
840;SDS011;406;48.566;13.450;2024-02-04T10:18:44;2.30;;;2.10;;
840;SDS011;406;48.566;13.450;2024-02-04T10:21:15;1.70;;;1.43;;
840;SDS011;406;48.566;13.450;2024-02-04T10:23:48;2.10;;;1.60;;
840;SDS011;406;48.566;13.450;2024-02-04T10:26:15;2.17;;;1.70;;
840;SDS011;406;48.566;13.450;2024-02-04T10:28:45;2.80;;;2.23;;
840;SDS011;406;48.566;13.450;2024-02-04T10:31:13;1.60;;;1.40;;
840;SDS011;406;48.566;13.450;2024-02-04T10:33:40;2.30;;;1.50;;
840;SDS011;406;48.566;13.450;2024-02-04T10:36:07;3.27;;;1.97;;
840;SDS011;406;48.566;13.450;2024-02-04T10:38:34;2.50;;;1.93;;
840;SDS011;406;48.566;13.450;2024-02-04T10:41:01;2.10;;;1.87;;
840;SDS011;406;48.566;13.450;2024-02-04T10:43:31;2.20;;;1.67;;
840;SDS011;406;48.566;13.450;2024-02-04T10:46:09;2.87;;;1.67;;
840;SDS011;406;48.566;13.450;2024-02-04T10:48:39;2.63;;;2.00;;
840;SDS011;406;48.566;13.450;2024-02-04T10:51:14;4.33;;;2.30;;
840;SDS011;406;48.566;13.450;2024-02-04T10:53:42;1.77;;;1.50;;
840;SDS011;406;48.566;13.450;2024-02-04T10:56:12;3.40;;;1.90;;
840;SDS011;406;48.566;13.450;2024-02-04T10:58:41;1.90;;;1.70;;
840;SDS011;406;48.566;13.450;2024-02-04T11:01:08;7.57;;;2.77;;
840;SDS011;406;48.566;13.450;2024-02-04T11:03:34;4.00;;;1.53;;
840;SDS011;406;48.566;13.450;2024-02-04T11:06:02;2.00;;;1.30;;
840;SDS011;406;48.566;13.450;2024-02-04T11:08:28;4.27;;;2.10;;
840;SDS011;406;48.566;13.450;2024-02-04T11:10:55;2.80;;;1.80;;
840;SDS011;406;48.566;13.450;2024-02-04T11:13:22;1.70;;;1.40;;
840;SDS011;406;48.566;13.450;2024-02-04T11:15:49;1.87;;;1.53;;
840;SDS011;406;48.566;13.450;2024-02-04T11:20:54;1.73;;;1.33;;
840;SDS011;406;48.566;13.450;2024-02-04T11:23:33;3.60;;;1.97;;
840;SDS011;406;48.566;13.450;2024-02-04T11:26:03;2.73;;;1.60;;
840;SDS011;406;48.566;13.450;2024-02-04T11:28:31;2.07;;;1.40;;
840;SDS011;406;48.566;13.450;2024-02-04T11:30:58;2.10;;;1.60;;
840;SDS011;406;48.566;13.450;2024-02-04T11:33:24;2.10;;;1.77;;
840;SDS011;406;48.566;13.450;2024-02-04T11:36:02;1.97;;;1.37;;
840;SDS011;406;48.566;13.450;2024-02-04T11:38:36;1.87;;;1.70;;
840;SDS011;406;48.566;13.450;2024-02-04T11:41:04;1.67;;;1.30;;
840;SDS011;406;48.566;13.450;2024-02-04T11:43:34;2.80;;;1.53;;
840;SDS011;406;48.566;13.450;2024-02-04T11:46:03;2.20;;;1.60;;
840;SDS011;406;48.566;13.450;2024-02-04T11:48:30;1.70;;;1.30;;
840;SDS011;406;48.566;13.450;2024-02-04T11:50:58;2.60;;;1.60;;
840;SDS011;406;48.566;13.450;2024-02-04T11:53:28;3.20;;;1.70;;
840;SDS011;406;48.566;13.450;2024-02-04T11:55:59;2.57;;;1.70;;
840;SDS011;406;48.566;13.450;2024-02-04T11:58:27;1.70;;;1.47;;
840;SDS011;406;48.566;13.450;2024-02-04T12:00:54;2.67;;;1.87;;
840;SDS011;406;48.566;13.450;2024-02-04T12:03:31;4.30;;;1.47;;
840;SDS011;406;48.566;13.450;2024-02-04T12:05:58;2.57;;;2.03;;
840;SDS011;406;48.566;13.450;2024-02-04T12:08:26;2.57;;;2.10;;
840;SDS011;406;48.566;13.450;2024-02-04T12:10:53;2.87;;;2.27;;
840;SDS011;406;48.566;13.450;2024-02-04T12:13:20;3.97;;;1.70;;
840;SDS011;406;48.566;13.450;2024-02-04T12:15:50;2.07;;;1.70;;
840;SDS011;406;48.566;13.450;2024-02-04T12:18:16;4.00;;;1.77;;
840;SDS011;406;48.566;13.450;2024-02-04T12:20:47;2.90;;;1.83;;
840;SDS011;406;48.566;13.450;2024-02-04T12:23:18;2.07;;;1.70;;
840;SDS011;406;48.566;13.450;2024-02-04T12:25:45;3.63;;;1.77;;
840;SDS011;406;48.566;13.450;2024-02-04T12:28:12;2.93;;;1.73;;
840;SDS011;406;48.566;13.450;2024-02-04T12:30:40;2.47;;;1.80;;
840;SDS011;406;48.566;13.450;2024-02-04T12:33:06;4.80;;;1.60;;
840;SDS011;406;48.566;13.450;2024-02-04T12:35:35;2.30;;;1.70;;
840;SDS011;406;48.566;13.450;2024-02-04T12:38:01;4.13;;;2.00;;
840;SDS011;406;48.566;13.450;2024-02-04T12:40:30;2.33;;;2.00;;
840;SDS011;406;48.566;13.450;2024-02-04T12:42:58;2.00;;;1.67;;
840;SDS011;406;48.566;13.450;2024-02-04T12:45:31;2.00;;;1.60;;
840;SDS011;406;48.566;13.450;2024-02-04T12:47:58;1.60;;;1.50;;
840;SDS011;406;48.566;13.450;2024-02-04T12:50:24;2.10;;;1.37;;
840;SDS011;406;48.566;13.450;2024-02-04T12:53:04;1.50;;;1.23;;
840;SDS011;406;48.566;13.450;2024-02-04T12:55:33;1.50;;;1.20;;
840;SDS011;406;48.566;13.450;2024-02-04T13:00:35;2.40;;;1.43;;
840;SDS011;406;48.566;13.450;2024-02-04T13:03:03;1.93;;;1.27;;
840;SDS011;406;48.566;13.450;2024-02-04T13:05:30;1.73;;;1.30;;
840;SDS011;406;48.566;13.450;2024-02-04T13:07:58;2.27;;;1.53;;
840;SDS011;406;48.566;13.450;2024-02-04T13:10:29;2.50;;;1.07;;
840;SDS011;406;48.566;13.450;2024-02-04T13:12:58;3.87;;;1.30;;
840;SDS011;406;48.566;13.450;2024-02-04T13:15:27;1.97;;;1.10;;
840;SDS011;406;48.566;13.450;2024-02-04T13:17:54;1.33;;;0.90;;
840;SDS011;406;48.566;13.450;2024-02-04T13:20:21;1.60;;;1.13;;
840;SDS011;406;48.566;13.450;2024-02-04T13:22:48;1.90;;;1.30;;
840;SDS011;406;48.566;13.450;2024-02-04T13:25:15;1.57;;;0.80;;
840;SDS011;406;48.566;13.450;2024-02-04T13:27:42;1.30;;;1.00;;
840;SDS011;406;48.566;13.450;2024-02-04T13:30:09;1.20;;;0.90;;
840;SDS011;406;48.566;13.450;2024-02-04T13:32:39;0.97;;;0.70;;
840;SDS011;406;48.566;13.450;2024-02-04T13:35:08;1.60;;;1.20;;
840;SDS011;406;48.566;13.450;2024-02-04T13:37:45;1.53;;;1.30;;
840;SDS011;406;48.566;13.450;2024-02-04T13:40:19;1.40;;;0.80;;
840;SDS011;406;48.566;13.450;2024-02-04T13:42:46;4.70;;;1.23;;
840;SDS011;406;48.566;13.450;2024-02-04T13:45:13;1.47;;;1.07;;
840;SDS011;406;48.566;13.450;2024-02-04T13:47:40;1.37;;;0.93;;
840;SDS011;406;48.566;13.450;2024-02-04T13:50:08;1.40;;;1.00;;
840;SDS011;406;48.566;13.450;2024-02-04T13:52:35;1.43;;;0.93;;
840;SDS011;406;48.566;13.450;2024-02-04T13:55:02;1.13;;;0.67;;
840;SDS011;406;48.566;13.450;2024-02-04T13:57:33;1.70;;;0.93;;
840;SDS011;406;48.566;13.450;2024-02-04T14:00:00;1.20;;;0.90;;
840;SDS011;406;48.566;13.450;2024-02-04T14:02:30;1.07;;;0.77;;
840;SDS011;406;48.566;13.450;2024-02-04T14:04:56;1.50;;;0.87;;
840;SDS011;406;48.566;13.450;2024-02-04T14:07:24;1.40;;;0.63;;
840;SDS011;406;48.566;13.450;2024-02-04T14:09:52;1.30;;;0.87;;
840;SDS011;406;48.566;13.450;2024-02-04T14:12:18;2.10;;;1.27;;
840;SDS011;406;48.566;13.450;2024-02-04T14:14:45;1.73;;;1.03;;
840;SDS011;406;48.566;13.450;2024-02-04T14:17:11;1.10;;;0.90;;
840;SDS011;406;48.566;13.450;2024-02-04T14:19:38;1.57;;;1.20;;
840;SDS011;406;48.566;13.450;2024-02-04T14:22:05;1.23;;;0.70;;
840;SDS011;406;48.566;13.450;2024-02-04T14:24:31;1.57;;;0.87;;
840;SDS011;406;48.566;13.450;2024-02-04T14:26:58;6.67;;;1.00;;
840;SDS011;406;48.566;13.450;2024-02-04T14:29:25;1.23;;;0.87;;
840;SDS011;406;48.566;13.450;2024-02-04T14:31:52;1.20;;;0.70;;
840;SDS011;406;48.566;13.450;2024-02-04T14:34:19;1.53;;;1.30;;
840;SDS011;406;48.566;13.450;2024-02-04T14:36:45;1.37;;;1.07;;
840;SDS011;406;48.566;13.450;2024-02-04T14:39:12;1.43;;;1.10;;
840;SDS011;406;48.566;13.450;2024-02-04T14:41:40;1.27;;;0.80;;
840;SDS011;406;48.566;13.450;2024-02-04T14:44:07;1.00;;;0.70;;
840;SDS011;406;48.566;13.450;2024-02-04T14:46:35;1.10;;;0.80;;
840;SDS011;406;48.566;13.450;2024-02-04T14:49:03;1.13;;;0.80;;
840;SDS011;406;48.566;13.450;2024-02-04T14:51:30;1.23;;;0.80;;
840;SDS011;406;48.566;13.450;2024-02-04T14:53:57;1.97;;;1.10;;
840;SDS011;406;48.566;13.450;2024-02-04T14:56:24;1.20;;;0.87;;
840;SDS011;406;48.566;13.450;2024-02-04T14:58:50;1.87;;;0.90;;
840;SDS011;406;48.566;13.450;2024-02-04T15:01:17;1.30;;;1.10;;
840;SDS011;406;48.566;13.450;2024-02-04T15:03:47;1.10;;;0.60;;
840;SDS011;406;48.566;13.450;2024-02-04T15:06:14;1.00;;;0.70;;
840;SDS011;406;48.566;13.450;2024-02-04T15:08:42;2.50;;;1.03;;
840;SDS011;406;48.566;13.450;2024-02-04T15:11:08;2.73;;;1.17;;
840;SDS011;406;48.566;13.450;2024-02-04T15:13:35;1.60;;;1.10;;
840;SDS011;406;48.566;13.450;2024-02-04T15:16:01;1.57;;;0.77;;
840;SDS011;406;48.566;13.450;2024-02-04T15:18:29;1.73;;;1.00;;
840;SDS011;406;48.566;13.450;2024-02-04T15:20:56;1.40;;;0.80;;
840;SDS011;406;48.566;13.450;2024-02-04T15:23:23;1.40;;;1.00;;
840;SDS011;406;48.566;13.450;2024-02-04T15:25:50;1.27;;;1.00;;
840;SDS011;406;48.566;13.450;2024-02-04T15:28:18;1.10;;;0.90;;
840;SDS011;406;48.566;13.450;2024-02-04T15:30:45;1.70;;;1.30;;
840;SDS011;406;48.566;13.450;2024-02-04T15:33:12;1.63;;;1.00;;
840;SDS011;406;48.566;13.450;2024-02-04T15:35:39;1.50;;;1.10;;
840;SDS011;406;48.566;13.450;2024-02-04T15:38:06;1.40;;;0.90;;